createdAt,value
2022-10-05T00:02:20.878Z,98615.59
2022-10-05T00:04:54.405Z,98620.69
2022-10-05T00:07:24.687Z,98601.13
2022-10-05T00:09:57.287Z,98607.06
2022-10-05T00:12:26.677Z,98607.06
2022-10-05T00:15:01.163Z,98599.41
2022-10-05T00:17:32.943Z,98608.75
2022-10-05T00:20:03.538Z,98601.97
2022-10-05T00:22:34.038Z,98606.22
2022-10-05T00:25:04.952Z,98585.75
2022-10-05T00:27:35.337Z,98599.44
2022-10-05T00:30:18.533Z,98600.25
2022-10-05T00:32:47.514Z,98601.13
2022-10-05T00:35:19.403Z,98586.59
2022-10-05T00:37:53.202Z,98582.34
2022-10-05T00:40:35.196Z,98590.03
2022-10-05T00:43:30.599Z,98594.31
2022-10-05T00:46:08.014Z,98587.47
2022-10-05T00:48:43.515Z,98579.81
2022-10-05T00:51:30.016Z,98585.75
2022-10-05T00:54:22.419Z,98584.88
2022-10-05T00:57:17.497Z,98577.22
2022-10-05T00:59:58.877Z,98590.84
2022-10-05T01:02:36.524Z,98583.19
2022-10-05T01:05:11.847Z,98582.31
2022-10-05T01:07:49.753Z,98572.09
2022-10-05T01:10:28.469Z,98578.91
2022-10-05T01:13:04.547Z,98578.06
2022-10-05T01:15:38.742Z,98575.50
2022-10-05T01:18:15.111Z,98584.91
2022-10-05T01:20:59.476Z,98579.78
2022-10-05T01:23:58.378Z,98563.56
2022-10-05T01:26:45.327Z,98570.41
2022-10-05T01:29:22.839Z,98584.03
2022-10-05T01:31:59.331Z,98575.53
2022-10-05T01:34:37.969Z,98568.72
2022-10-05T01:37:12.557Z,98573.84
2022-10-05T01:39:55.882Z,98584.09
2022-10-05T01:42:33.984Z,98582.38
2022-10-05T01:45:11.434Z,98574.66
2022-10-05T01:47:45.544Z,98584.91
2022-10-05T01:50:18.561Z,98589.19
2022-10-05T01:52:56.901Z,98595.13
2022-10-05T01:55:32.979Z,98573.88
2022-10-05T01:58:12.731Z,98578.97
2022-10-05T02:00:51.229Z,98577.28
2022-10-05T02:03:25.969Z,98582.38
2022-10-05T02:06:01.330Z,98580.66
2022-10-05T02:08:37.723Z,98586.66
2022-10-05T02:11:09.601Z,98579.84
2022-10-05T02:13:44.321Z,98590.94
2022-10-05T02:16:18.587Z,98589.22
2022-10-05T02:18:52.569Z,98591.75
2022-10-05T02:21:22.871Z,98590.09
2022-10-05T02:23:56.987Z,98582.41
2022-10-05T02:26:25.862Z,98590.94
2022-10-05T02:28:57.716Z,98582.44
2022-10-05T02:31:33.728Z,98579.88
2022-10-05T02:34:25.722Z,98562.84
2022-10-05T02:37:04.319Z,98561.97
2022-10-05T02:39:41.705Z,98538.16
2022-10-05T02:42:17.992Z,98538.16
2022-10-05T02:44:54.577Z,98550.09
2022-10-05T02:47:35.068Z,98549.25
2022-10-05T02:50:12.496Z,98556.03
2022-10-05T02:52:49.875Z,98553.50
2022-10-05T02:55:21.843Z,98548.38
2022-10-05T02:57:59.406Z,98539.91
2022-10-05T03:00:31.377Z,98538.16
2022-10-05T03:03:07.851Z,98550.94
2022-10-05T03:05:59.029Z,98540.75
2022-10-05T03:08:36.384Z,98550.06
2022-10-05T03:11:13.955Z,98551.81
2022-10-05T03:13:51.110Z,98541.59
2022-10-05T03:16:39.536Z,98538.16
2022-10-05T03:19:23.549Z,98548.38
2022-10-05T03:22:00.530Z,98552.63
2022-10-05T03:24:48.119Z,98550.91
2022-10-05T03:27:29.591Z,98552.63
2022-10-05T03:30:03.549Z,98544.13
2022-10-05T03:32:45.720Z,98529.63
2022-10-05T03:35:22.881Z,98530.47
2022-10-05T03:38:00.808Z,98535.59
2022-10-05T03:40:36.022Z,98522.81
2022-10-05T03:43:21.118Z,98534.72
2022-10-05T03:45:57.658Z,98532.16
2022-10-05T03:48:34.392Z,98533.03
2022-10-05T03:51:14.508Z,98521.13
2022-10-05T03:53:47.276Z,98527.91
2022-10-05T03:56:21.434Z,98515.97
2022-10-05T03:58:57.434Z,98512.56
2022-10-05T04:01:35.695Z,98514.25
2022-10-05T04:04:09.211Z,98513.38
2022-10-05T04:06:43.802Z,98508.25
2022-10-05T04:09:18.361Z,98499.69
2022-10-05T04:11:58.402Z,98492.06
2022-10-05T04:14:32.723Z,98497.13
2022-10-05T04:17:06.944Z,98501.38
2022-10-05T04:19:40.700Z,98490.31
2022-10-05T04:22:17.578Z,98502.19
2022-10-05T04:24:51.149Z,98496.22
2022-10-05T04:27:23.626Z,98494.50
2022-10-05T04:29:57.450Z,98486.81
2022-10-05T04:32:39.201Z,98484.25
2022-10-05T04:35:30.517Z,98496.16
2022-10-05T04:38:11.857Z,98493.59
2022-10-05T04:40:57.245Z,98502.13
2022-10-05T04:43:37.957Z,98514.91
2022-10-05T04:46:21.909Z,98502.16
2022-10-05T04:49:18.541Z,98521.72
2022-10-05T04:51:58.303Z,98521.75
2022-10-05T04:54:41.523Z,98520.03
2022-10-05T04:57:16.730Z,98526.03
2022-10-05T05:00:06.765Z,98522.66
2022-10-05T05:02:58.277Z,98540.53
2022-10-05T05:05:48.417Z,98538.00
2022-10-05T05:08:42.976Z,98539.72
2022-10-05T05:11:29.062Z,98519.28
2022-10-05T05:14:27.205Z,98533.78
2022-10-05T05:17:12.892Z,98523.56
2022-10-05T05:19:52.601Z,98532.94
2022-10-05T05:22:30.347Z,98522.75
2022-10-05T05:25:17.617Z,98532.06
2022-10-05T05:27:50.727Z,98534.63
2022-10-05T05:30:24.332Z,98545.69
2022-10-05T05:33:09.325Z,98544.00
2022-10-05T05:36:02.149Z,98542.28
2022-10-05T05:38:36.389Z,98545.75
2022-10-05T05:41:11.334Z,98539.72
2022-10-05T05:43:54.719Z,98534.63
2022-10-05T05:46:51.182Z,98544.00
2022-10-05T05:49:20.009Z,98554.25
2022-10-05T05:51:54.243Z,98544.84
2022-10-05T05:54:30.295Z,98555.09
2022-10-05T05:57:09.736Z,98559.34
2022-10-05T05:59:51.449Z,98544.00
2022-10-05T06:02:25.444Z,98562.72
2022-10-05T06:04:56.275Z,98564.41
2022-10-05T06:07:30.740Z,98566.13
2022-10-05T06:10:07.167Z,98563.56
2022-10-05T06:12:41.077Z,98571.22
2022-10-05T06:15:24.563Z,98579.72
2022-10-05T06:17:58.210Z,98570.31
2022-10-05T06:20:30.341Z,98576.25
2022-10-05T06:23:04.762Z,98578.75
2022-10-05T06:25:43.599Z,98583.88
2022-10-05T06:28:14.148Z,98578.72
2022-10-05T06:30:53.444Z,98582.97
2022-10-05T06:33:35.945Z,98588.06
2022-10-05T06:36:16.307Z,98587.22
2022-10-05T06:39:09.656Z,98598.19
2022-10-05T06:41:50.620Z,98591.28
2022-10-05T06:44:28.050Z,98583.59
2022-10-05T06:47:08.972Z,98597.94
2022-10-05T06:49:46.166Z,98585.09
2022-10-05T06:52:31.699Z,98602.81
2022-10-05T06:55:16.703Z,98607.84
2022-10-05T06:58:08.426Z,98606.03
2022-10-05T07:00:43.768Z,98602.59
2022-10-05T07:03:23.238Z,98610.97
2022-10-05T07:06:01.316Z,98589.50
2022-10-05T07:08:42.844Z,98608.19
2022-10-05T07:11:26.663Z,98612.28
2022-10-05T07:14:25.706Z,98614.69
2022-10-05T07:17:10.431Z,98616.25
2022-10-05T07:19:53.316Z,98618.72
2022-10-05T07:22:35.434Z,98619.41
2022-10-05T07:25:11.238Z,98624.38
2022-10-05T07:27:51.105Z,98619.16
2022-10-05T07:30:21.201Z,98596.16
2022-10-05T07:33:00.255Z,98612.13
2022-10-05T07:36:04.785Z,98613.69
2022-10-05T07:38:40.239Z,98615.25
2022-10-05T07:41:12.684Z,98617.69
2022-10-05T07:44:02.128Z,98620.16
2022-10-05T07:46:40.465Z,98623.47
2022-10-05T07:49:19.076Z,98628.44
2022-10-05T07:51:52.549Z,98621.38
2022-10-05T07:54:26.616Z,98627.16
2022-10-05T07:56:57.022Z,98627.84
2022-10-05T07:59:33.096Z,98621.03
2022-10-05T08:02:08.982Z,98624.28
2022-10-05T08:04:46.431Z,98620.81
2022-10-05T08:07:19.419Z,98630.00
2022-10-05T08:09:52.603Z,98622.22
2022-10-05T08:12:37.893Z,98634.69
2022-10-05T08:15:15.792Z,98625.09
2022-10-05T08:17:53.861Z,98635.97
2022-10-05T08:20:41.406Z,98631.53
2022-10-05T08:23:21.781Z,98634.72
2022-10-05T08:26:02.427Z,98637.16
2022-10-05T08:28:37.128Z,98635.19
2022-10-05T08:31:16.592Z,98629.88
2022-10-05T08:33:55.677Z,98621.06
2022-10-05T08:36:34.615Z,98621.81
2022-10-05T08:39:13.092Z,98625.69
2022-10-05T08:42:02.696Z,98610.84
2022-10-05T08:45:00.737Z,98604.91
2022-10-05T08:48:01.694Z,98611.16
2022-10-05T08:50:57.559Z,98612.63
2022-10-05T08:53:56.276Z,98605.41
2022-10-05T08:56:45.176Z,98608.47
2022-10-05T08:59:53.061Z,98606.41
2022-10-05T09:02:31.658Z,98601.94
2022-10-05T09:05:16.796Z,98603.13
2022-10-05T09:08:21.410Z,98601.06
2022-10-05T09:11:07.943Z,98607.38
2022-10-05T09:14:17.506Z,98602.88
2022-10-05T09:16:54.863Z,98597.28
2022-10-05T09:19:48.925Z,98604.84
2022-10-05T09:22:24.634Z,98606.09
2022-10-05T09:25:06.455Z,98605.78
2022-10-05T09:27:39.972Z,98610.75
2022-10-05T09:30:23.408Z,98605.41
2022-10-05T09:33:23.861Z,98605.09
2022-10-05T09:36:30.678Z,98606.59
2022-10-05T09:39:21.504Z,98600.25
2022-10-05T09:42:13.338Z,98599.28
2022-10-05T09:45:23.605Z,98601.31
2022-10-05T09:48:29.815Z,98590.81
2022-10-05T09:51:25.481Z,98591.16
2022-10-05T09:54:29.377Z,98588.47
2022-10-05T09:57:16.321Z,98590.31
2022-10-05T10:00:21.403Z,98580.47
2022-10-05T10:03:25.591Z,98576.66
2022-10-05T10:06:21.074Z,98581.38
2022-10-05T10:09:14.412Z,98576.88
2022-10-05T10:12:15.384Z,98569.94
2022-10-05T10:15:18.688Z,98568.16
2022-10-05T10:18:26.883Z,98570.56
2022-10-05T10:21:34.251Z,98565.19
2022-10-05T10:24:15.321Z,98568.56
2022-10-05T10:27:01.901Z,98575.47
2022-10-05T10:29:51.794Z,98570.75
2022-10-05T10:33:04.006Z,98566.19
2022-10-05T10:35:36.148Z,98558.22
2022-10-05T10:38:37.769Z,98567.41
2022-10-05T10:41:34.828Z,98556.50
2022-10-05T10:44:44.525Z,98558.50
2022-10-05T10:47:41.655Z,98544.31
2022-10-05T10:50:35.820Z,98546.34
2022-10-05T10:53:20.890Z,98542.47
2022-10-05T10:56:04.835Z,98535.31
2022-10-05T10:58:58.653Z,98553.19
2022-10-05T11:01:34.582Z,98536.88
2022-10-05T11:04:30.464Z,98534.66
2022-10-05T11:07:28.740Z,98531.75
2022-10-05T11:10:46.419Z,98534.94
2022-10-05T11:13:35.321Z,98524.28
2022-10-05T11:16:28.028Z,98523.94
2022-10-05T11:19:40.066Z,98524.38
2022-10-05T11:22:35.633Z,98515.69
2022-10-05T11:25:21.777Z,98521.09
2022-10-05T11:28:06.235Z,98515.63
2022-10-05T11:31:13.301Z,98514.66
2022-10-05T11:34:27.169Z,98515.63
2022-10-05T11:37:32.185Z,98508.97
2022-10-05T11:40:18.224Z,98507.09
2022-10-05T11:43:14.560Z,98504.47
2022-10-05T11:46:02.500Z,98500.00
2022-10-05T11:49:02.079Z,98502.97
2022-10-05T11:51:52.119Z,98499.31
2022-10-05T11:54:58.601Z,98495.88
2022-10-05T11:57:34.533Z,98495.31
2022-10-05T12:00:15.090Z,98486.59
2022-10-05T12:03:32.349Z,98487.41
2022-10-05T12:06:14.504Z,98480.53
2022-10-05T12:08:52.626Z,98473.66
2022-10-05T12:11:43.721Z,98479.97
2022-10-05T12:14:24.328Z,98479.75
2022-10-05T12:17:00.534Z,98470.16
2022-10-05T12:19:34.149Z,98480.25
2022-10-05T12:22:11.088Z,98480.03
2022-10-05T12:25:03.606Z,98475.44
2022-10-05T12:27:40.822Z,98465.56
2022-10-05T12:30:16.173Z,98474.09
2022-10-05T12:33:01.609Z,98466.72
2022-10-05T12:35:48.062Z,98472.38
2022-10-05T12:38:28.980Z,98475.66
2022-10-05T12:41:08.059Z,98472.03
2022-10-05T12:43:49.178Z,98472.19
2022-10-05T12:46:31.418Z,98467.88
2022-10-05T12:49:30.623Z,98464.66
2022-10-05T12:52:00.761Z,98473.47
2022-10-05T12:54:41.215Z,98470.03
2022-10-05T12:57:20.294Z,98479.28
2022-10-05T12:59:57.526Z,98479.16
2022-10-05T13:02:36.964Z,98470.25
2022-10-05T13:05:21.340Z,98460.16
2022-10-05T13:08:10.805Z,98465.78
2022-10-05T13:10:46.973Z,98465.72
2022-10-05T13:13:34.800Z,98460.38
2022-10-05T13:16:22.198Z,98465.97
2022-10-05T13:19:02.601Z,98452.47
2022-10-05T13:21:40.854Z,98460.81
2022-10-05T13:24:17.718Z,98446.94
2022-10-05T13:26:49.862Z,98456.06
2022-10-05T13:29:25.828Z,98455.22
2022-10-05T13:31:59.142Z,98447.84
2022-10-05T13:34:37.382Z,98441.81
2022-10-05T13:37:21.869Z,98451.81
2022-10-05T13:40:07.312Z,98423.09
2022-10-05T13:42:45.969Z,98438.84
2022-10-05T13:45:19.328Z,98429.13
2022-10-05T13:48:02.074Z,98440.00
2022-10-05T13:50:35.952Z,98440.16
2022-10-05T13:53:10.308Z,98440.16
2022-10-05T13:55:49.171Z,98424.16
2022-10-05T13:58:29.029Z,98432.50
2022-10-05T14:01:03.384Z,98428.16
2022-10-05T14:03:36.347Z,98429.72
2022-10-05T14:06:16.828Z,98424.59
2022-10-05T14:08:52.930Z,98416.00
2022-10-05T14:11:31.728Z,98417.53
2022-10-05T14:14:17.091Z,98418.97
2022-10-05T14:16:52.606Z,98417.69
2022-10-05T14:19:28.494Z,98416.88
2022-10-05T14:22:03.229Z,98415.88
2022-10-05T14:24:44.798Z,98412.81
2022-10-05T14:27:22.910Z,98407.59
2022-10-05T14:29:58.128Z,98405.59
2022-10-05T14:32:28.751Z,98391.28
2022-10-05T14:35:17.446Z,98399.19
2022-10-05T14:37:51.838Z,98389.84
2022-10-05T14:40:29.456Z,98390.53
2022-10-05T14:42:59.454Z,98391.78
2022-10-05T14:45:30.948Z,98389.03
2022-10-05T14:48:11.453Z,98384.56
2022-10-05T14:50:55.494Z,98385.91
2022-10-05T14:53:26.864Z,98383.56
2022-10-05T14:56:26.356Z,98378.69
2022-10-05T14:59:28.404Z,98384.91
2022-10-05T15:02:02.338Z,98375.09
2022-10-05T15:04:37.023Z,98383.41
2022-10-05T15:07:14.669Z,98382.88
2022-10-05T15:09:59.393Z,98378.22
2022-10-05T15:12:34.738Z,98372.56
2022-10-05T15:15:08.361Z,98385.69
2022-10-05T15:17:44.786Z,98388.72
2022-10-05T15:20:24.886Z,98386.28
2022-10-05T15:23:02.959Z,98389.25
2022-10-05T15:25:40.454Z,98380.25
2022-10-05T15:28:17.727Z,98383.41
2022-10-05T15:30:57.087Z,98376.84
2022-10-05T15:33:31.982Z,98383.88
2022-10-05T15:36:09.073Z,98377.63
2022-10-05T15:38:50.185Z,98384.84
2022-10-05T15:41:25.500Z,98362.38
2022-10-05T15:44:06.209Z,98377.94
2022-10-05T15:46:42.208Z,98373.34
2022-10-05T15:49:25.453Z,98382.19
2022-10-05T15:52:04.656Z,98369.09
2022-10-05T15:55:06.644Z,98371.63
2022-10-05T15:57:41.365Z,98377.25
2022-10-05T16:00:13.814Z,98378.56
2022-10-05T16:02:48.621Z,98375.78
2022-10-05T16:05:42.855Z,98382.09
2022-10-05T16:08:39.662Z,98378.44
2022-10-05T16:11:19.134Z,98382.47
2022-10-05T16:13:59.980Z,98382.06
2022-10-05T16:16:36.412Z,98379.91
2022-10-05T16:19:11.345Z,98382.13
2022-10-05T16:21:48.630Z,98383.72
2022-10-05T16:24:29.590Z,98386.66
2022-10-05T16:27:02.599Z,98381.16
2022-10-05T16:29:41.971Z,98392.84
2022-10-05T16:32:17.831Z,98387.41
2022-10-05T16:35:00.000Z,98385.50
2022-10-05T16:37:38.836Z,98396.13
2022-10-05T16:40:20.510Z,98386.34
2022-10-05T16:43:03.335Z,98394.31
2022-10-05T16:45:53.625Z,98382.88
2022-10-05T16:48:28.032Z,98401.25
2022-10-05T16:51:14.769Z,98402.50
2022-10-05T16:53:45.874Z,98389.31
2022-10-05T16:56:17.770Z,98394.66
2022-10-05T16:59:04.345Z,98392.38
2022-10-05T17:01:49.518Z,98396.81
2022-10-05T17:04:37.131Z,98387.94
2022-10-05T17:07:36.427Z,98409.66
2022-10-05T17:10:27.012Z,98420.03
2022-10-05T17:13:05.537Z,98419.31
2022-10-05T17:15:49.697Z,98423.03
2022-10-05T17:18:30.014Z,98419.91
2022-10-05T17:21:08.122Z,98422.69
2022-10-05T17:23:53.703Z,98416.06
2022-10-05T17:26:46.429Z,98417.84
2022-10-05T17:29:18.407Z,98432.69
2022-10-05T17:32:33.771Z,98426.03
2022-10-05T17:35:18.502Z,98427.16
2022-10-05T17:38:14.656Z,98430.78
2022-10-05T17:41:06.713Z,98424.22
2022-10-05T17:43:36.010Z,98432.09
2022-10-05T17:46:07.098Z,98433.19
2022-10-05T17:48:44.501Z,98448.78
2022-10-05T17:51:57.311Z,98440.34
2022-10-05T17:55:04.667Z,98443.91
2022-10-05T17:57:34.696Z,98426.06
2022-10-05T18:00:07.174Z,98433.03
2022-10-05T18:02:44.276Z,98430.69
2022-10-05T18:05:26.333Z,98445.34
2022-10-05T18:08:33.541Z,98441.13
2022-10-05T18:11:12.838Z,98437.88
2022-10-05T18:13:47.731Z,98442.25
2022-10-05T18:16:54.657Z,98441.31
2022-10-05T18:19:24.048Z,98448.38
2022-10-05T18:22:11.176Z,98457.06
2022-10-05T18:25:04.005Z,98453.75
2022-10-05T18:27:55.142Z,98447.91
2022-10-05T18:30:25.576Z,98453.09
2022-10-05T18:33:30.150Z,98458.34
2022-10-05T18:36:12.435Z,98460.94
2022-10-05T18:38:54.735Z,98445.91
2022-10-05T18:41:38.576Z,98456.81
2022-10-05T18:44:27.838Z,98460.22
2022-10-05T18:47:02.405Z,98468.97
2022-10-05T18:49:48.494Z,98450.97
2022-10-05T18:52:25.236Z,98443.34
2022-10-05T18:55:04.564Z,98462.94
2022-10-05T18:57:59.798Z,98456.72
2022-10-05T19:00:42.255Z,98462.72
2022-10-05T19:03:21.033Z,98460.84
2022-10-05T19:05:57.753Z,98465.97
2022-10-05T19:08:38.071Z,98466.81
2022-10-05T19:11:18.213Z,98472.78
2022-10-05T19:13:56.039Z,98473.66
2022-10-05T19:16:47.654Z,98467.75
2022-10-05T19:19:40.334Z,98465.16
2022-10-05T19:22:19.551Z,98469.56
2022-10-05T19:25:01.935Z,98472.22
2022-10-05T19:27:46.111Z,98478.31
2022-10-05T19:30:21.272Z,98482.84
2022-10-05T19:33:09.245Z,98484.56
2022-10-05T19:35:51.252Z,98490.63
2022-10-05T19:38:27.819Z,98497.63
2022-10-05T19:41:04.640Z,98499.41
2022-10-05T19:44:01.570Z,98496.03
2022-10-05T19:46:46.497Z,98501.94
2022-10-05T19:49:40.095Z,98499.53
2022-10-05T19:52:15.881Z,98509.88
2022-10-05T19:54:45.972Z,98511.78
2022-10-05T19:57:19.631Z,98524.66
2022-10-05T19:59:49.950Z,98517.81
2022-10-05T20:02:19.200Z,98524.81
2022-10-05T20:04:50.466Z,98530.88
2022-10-05T20:07:21.296Z,98530.94
2022-10-05T20:09:57.075Z,98531.88
2022-10-05T20:12:51.130Z,98529.34
2022-10-05T20:15:40.971Z,98535.44
2022-10-05T20:18:58.653Z,98538.09
2022-10-05T20:21:48.552Z,98547.59
2022-10-05T20:24:19.316Z,98561.44
2022-10-05T20:27:16.158Z,98551.38
2022-10-05T20:29:47.183Z,98567.53
2022-10-05T20:32:18.704Z,98576.25
2022-10-05T20:34:52.282Z,98576.41
2022-10-05T20:37:21.139Z,98579.81
2022-10-05T20:39:50.953Z,98581.72
2022-10-05T20:42:23.187Z,98597.94
2022-10-05T20:44:56.550Z,98598.91
2022-10-05T20:47:27.560Z,98597.38
2022-10-05T20:49:55.909Z,98597.38
2022-10-05T20:52:24.603Z,98611.13
2022-10-05T20:54:59.037Z,98595.03
2022-10-05T20:57:27.682Z,98611.25
2022-10-05T20:59:55.937Z,98619.88
2022-10-05T21:02:24.330Z,98612.28
2022-10-05T21:04:54.684Z,98609.13
2022-10-05T21:07:23.754Z,98623.69
2022-10-05T21:09:59.860Z,98620.28
2022-10-05T21:12:38.174Z,98632.34
2022-10-05T21:15:08.727Z,98639.22
2022-10-05T21:17:38.334Z,98638.41
2022-10-05T21:20:12.073Z,98640.13
2022-10-05T21:22:40.958Z,98645.47
2022-10-05T21:25:10.879Z,98642.91
2022-10-05T21:27:39.750Z,98642.97
2022-10-05T21:30:09.652Z,98649.91
2022-10-05T21:32:43.216Z,98655.13
2022-10-05T21:35:14.212Z,98643.38
2022-10-05T21:37:47.522Z,98651.13
2022-10-05T21:40:16.409Z,98660.63
2022-10-05T21:42:45.762Z,98674.38
2022-10-05T21:45:14.013Z,98671.88
2022-10-05T21:47:43.010Z,98683.84
2022-10-05T21:50:11.937Z,98689.88
2022-10-05T21:52:42.193Z,98683.94
2022-10-05T21:55:13.032Z,98689.88
2022-10-05T21:57:41.896Z,98693.34
2022-10-05T22:00:14.293Z,98691.75
2022-10-05T22:02:43.114Z,98677.31
2022-10-05T22:05:11.481Z,98699.63
2022-10-05T22:07:39.967Z,98703.03
2022-10-05T22:10:11.947Z,98699.00
2022-10-05T22:12:41.654Z,98712.66
2022-10-05T22:15:11.327Z,98704.16
2022-10-05T22:17:41.317Z,98707.72
2022-10-05T22:20:13.520Z,98713.78
2022-10-05T22:22:42.030Z,98718.09
2022-10-05T22:25:12.279Z,98714.72
2022-10-05T22:27:41.124Z,98717.31
2022-10-05T22:30:10.562Z,98714.91
2022-10-05T22:32:38.970Z,98724.25
2022-10-05T22:35:11.524Z,98720.88
2022-10-05T22:37:40.470Z,98720.94
2022-10-05T22:40:11.459Z,98723.50
2022-10-05T22:42:41.529Z,98729.50
2022-10-05T22:45:10.292Z,98711.69
2022-10-05T22:47:38.863Z,98727.81
2022-10-05T22:50:08.296Z,98740.69
2022-10-05T22:52:36.566Z,98721.97
2022-10-05T22:55:05.191Z,98733.81
2022-10-05T22:57:41.195Z,98742.31
2022-10-05T23:00:11.448Z,98727.06
2022-10-05T23:02:40.989Z,98725.28
2022-10-05T23:05:11.072Z,98733.75
2022-10-05T23:07:41.104Z,98737.19
2022-10-05T23:10:11.521Z,98735.50
2022-10-05T23:12:42.026Z,98738.91
2022-10-05T23:15:11.374Z,98737.22
2022-10-05T23:17:40.658Z,98737.28
2022-10-05T23:20:09.748Z,98735.59
2022-10-05T23:22:39.001Z,98737.41
2022-10-05T23:25:10.022Z,98746.78
2022-10-05T23:27:41.448Z,98746.78
2022-10-05T23:30:12.699Z,98747.66
2022-10-05T23:32:42.560Z,98750.97
2022-10-05T23:35:12.495Z,98742.38
2022-10-05T23:37:42.107Z,98743.25
2022-10-05T23:40:13.820Z,98751.81
2022-10-05T23:42:44.045Z,98759.53
2022-10-05T23:45:13.301Z,98752.56
2022-10-05T23:47:42.393Z,98758.56
2022-10-05T23:50:11.991Z,98758.59
2022-10-05T23:52:40.472Z,98763.72
2022-10-05T23:55:09.145Z,98758.56
2022-10-05T23:57:38.423Z,98762.13
